createdAt,value
2019-04-03T00:00:44.476Z,1.52
2019-04-03T00:03:13.020Z,2.08
2019-04-03T00:05:41.606Z,1.80
2019-04-03T00:08:10.269Z,1.98
2019-04-03T00:10:38.928Z,1.82
2019-04-03T00:13:10.462Z,2.15
2019-04-03T00:15:37.814Z,2.00
2019-04-03T00:18:06.396Z,2.08
2019-04-03T00:20:35.137Z,2.42
2019-04-03T00:23:03.708Z,1.90
2019-04-03T00:25:32.195Z,1.50
2019-04-03T00:28:00.778Z,1.98
2019-04-03T00:30:29.407Z,1.80
2019-04-03T00:32:58.210Z,1.55
2019-04-03T00:35:26.965Z,1.90
2019-04-03T00:37:55.526Z,1.42
2019-04-03T00:40:24.780Z,2.00
2019-04-03T00:42:54.609Z,1.77
2019-04-03T00:45:24.522Z,1.60
2019-04-03T00:47:55.275Z,0.90
2019-04-03T00:50:26.249Z,1.10
2019-04-03T00:52:57.061Z,1.40
2019-04-03T00:55:26.673Z,1.65
2019-04-03T00:57:56.508Z,1.50
2019-04-03T01:00:26.429Z,1.10
2019-04-03T01:02:58.250Z,1.20
2019-04-03T01:05:28.179Z,1.77
2019-04-03T01:07:59.072Z,1.42
2019-04-03T01:10:29.301Z,1.17
2019-04-03T01:12:56.986Z,0.60
2019-04-03T01:15:25.545Z,1.37
2019-04-03T01:17:54.133Z,1.40
2019-04-03T01:20:22.940Z,1.95
2019-04-03T01:22:51.681Z,2.22
2019-04-03T01:25:20.159Z,1.92
2019-04-03T01:27:48.981Z,1.43
2019-04-03T01:30:17.630Z,1.73
2019-04-03T01:32:46.819Z,1.07
2019-04-03T01:35:17.407Z,1.57
2019-04-03T01:37:46.165Z,2.60
2019-04-03T01:40:14.748Z,2.33
2019-04-03T01:42:43.354Z,2.37
2019-04-03T01:45:11.906Z,2.50
2019-04-03T01:47:40.466Z,3.10
2019-04-03T01:50:09.332Z,2.17
2019-04-03T01:52:37.890Z,2.30
2019-04-03T01:55:07.584Z,2.73
2019-04-03T01:57:36.699Z,2.30
2019-04-03T02:00:07.722Z,3.30
2019-04-03T02:02:38.782Z,3.03
2019-04-03T02:05:07.755Z,2.40
2019-04-03T02:07:36.379Z,1.87
2019-04-03T02:10:07.916Z,2.67
2019-04-03T02:12:36.410Z,2.77
2019-04-03T02:15:05.638Z,2.22
2019-04-03T02:17:34.390Z,1.80
2019-04-03T02:20:03.236Z,1.80
2019-04-03T02:22:31.743Z,2.63
2019-04-03T02:25:01.820Z,1.07
2019-04-03T02:27:33.046Z,2.30
2019-04-03T02:30:01.124Z,2.13
2019-04-03T02:32:29.612Z,2.47
2019-04-03T02:34:58.579Z,1.37
2019-04-03T02:37:27.503Z,2.00
2019-04-03T02:39:59.056Z,2.70
2019-04-03T02:42:26.398Z,2.47
2019-04-03T02:44:55.313Z,2.53
2019-04-03T02:47:24.008Z,2.57
2019-04-03T02:49:52.578Z,1.43
2019-04-03T02:52:24.071Z,2.20
2019-04-03T02:54:52.435Z,1.83
2019-04-03T02:57:20.939Z,1.97
2019-04-03T02:59:49.847Z,2.33
2019-04-03T03:02:18.856Z,1.50
2019-04-03T03:04:47.543Z,2.10
2019-04-03T03:07:16.512Z,1.43
2019-04-03T03:09:47.721Z,1.10
2019-04-03T03:12:16.860Z,1.33
2019-04-03T03:14:45.616Z,1.47
2019-04-03T03:17:14.530Z,2.53
2019-04-03T03:19:43.668Z,2.00
2019-04-03T03:22:14.670Z,1.70
2019-04-03T03:24:44.544Z,1.90
2019-04-03T03:27:13.276Z,2.10
2019-04-03T03:29:41.897Z,2.47
2019-04-03T03:32:18.784Z,1.97
2019-04-03T03:34:54.101Z,2.33
2019-04-03T03:37:12.914Z,1.80
2019-04-03T03:39:44.115Z,1.37
2019-04-03T03:42:14.046Z,2.23
2019-04-03T03:44:45.226Z,1.67
2019-04-03T03:47:13.816Z,1.57
2019-04-03T03:49:43.603Z,1.40
2019-04-03T03:52:13.801Z,1.93
2019-04-03T03:54:43.055Z,1.60
2019-04-03T03:57:12.144Z,2.13
2019-04-03T03:59:40.910Z,1.97
2019-04-03T04:02:09.510Z,1.97
2019-04-03T04:04:38.520Z,2.20
2019-04-03T04:07:07.212Z,1.97
2019-04-03T04:09:35.836Z,3.43
2019-04-03T04:12:06.719Z,3.23
2019-04-03T04:14:36.331Z,3.37
2019-04-03T04:17:08.435Z,3.40
2019-04-03T04:19:36.719Z,4.10
2019-04-03T04:22:05.396Z,4.23
2019-04-03T04:24:35.105Z,4.67
2019-04-03T04:27:04.243Z,3.03
2019-04-03T04:29:32.917Z,4.77
2019-04-03T04:32:01.583Z,5.10
2019-04-03T04:34:30.063Z,5.03
2019-04-03T04:36:59.075Z,5.43
2019-04-03T04:39:29.395Z,3.80
2019-04-03T04:41:58.050Z,3.27
2019-04-03T04:44:26.548Z,4.80
2019-04-03T04:46:55.183Z,5.67
2019-04-03T04:49:23.798Z,3.62
2019-04-03T04:51:52.570Z,4.92
2019-04-03T04:54:21.106Z,4.08
2019-04-03T04:56:49.734Z,3.80
2019-04-03T04:59:18.402Z,3.67
2019-04-03T05:01:48.773Z,3.98
2019-04-03T05:04:17.103Z,4.10
2019-04-03T05:06:45.776Z,4.12
2019-04-03T05:09:14.414Z,1.57
2019-04-03T05:11:42.996Z,4.08
2019-04-03T05:14:11.658Z,3.42
2019-04-03T05:16:40.314Z,3.30
2019-04-03T05:19:14.787Z,4.47
2019-04-03T05:21:39.251Z,4.30
2019-04-03T05:24:13.118Z,3.25
2019-04-03T05:26:38.357Z,3.85
2019-04-03T05:29:06.887Z,4.10
2019-04-03T05:31:36.915Z,4.92
2019-04-03T05:34:05.865Z,3.85
2019-04-03T05:36:34.506Z,3.62
2019-04-03T05:39:04.810Z,3.60
2019-04-03T05:41:33.554Z,3.87
2019-04-03T05:44:02.793Z,4.15
2019-04-03T05:46:31.391Z,3.45
2019-04-03T05:49:00.132Z,3.85
2019-04-03T05:51:29.738Z,3.42
2019-04-03T05:53:58.944Z,3.67
2019-04-03T05:56:27.570Z,3.27
2019-04-03T05:59:00.382Z,1.70
2019-04-03T06:01:26.870Z,2.10
2019-04-03T06:03:55.519Z,2.33
2019-04-03T06:06:24.352Z,1.50
2019-04-03T06:08:54.009Z,3.08
2019-04-03T06:11:23.274Z,2.35
2019-04-03T06:13:51.922Z,2.00
2019-04-03T06:16:23.407Z,2.12
2019-04-03T06:18:50.901Z,2.10
2019-04-03T06:21:19.639Z,2.55
2019-04-03T06:23:48.532Z,2.87
2019-04-03T06:26:17.487Z,2.90
2019-04-03T06:28:47.652Z,2.75
2019-04-03T06:31:16.404Z,2.60
2019-04-03T06:33:45.027Z,2.52
2019-04-03T06:36:16.861Z,2.72
2019-04-03T06:38:44.084Z,2.65
2019-04-03T06:41:12.794Z,2.40
2019-04-03T06:43:41.808Z,2.33
2019-04-03T06:46:10.427Z,3.08
2019-04-03T06:48:38.864Z,1.80
2019-04-03T06:51:07.541Z,1.25
2019-04-03T06:53:36.166Z,2.20
2019-04-03T06:56:07.820Z,2.00
2019-04-03T06:58:39.402Z,1.98
2019-04-03T07:01:05.746Z,1.67
2019-04-03T07:03:35.061Z,1.98
2019-04-03T07:06:04.411Z,2.37
2019-04-03T07:08:35.421Z,2.50
2019-04-03T07:11:03.439Z,2.37
2019-04-03T07:13:32.112Z,2.12
2019-04-03T07:16:00.624Z,2.45
2019-04-03T07:18:29.177Z,2.12
2019-04-03T07:20:57.857Z,1.87
2019-04-03T07:23:27.806Z,1.57
2019-04-03T07:25:56.847Z,1.95
2019-04-03T07:28:25.511Z,1.70
2019-04-03T07:30:54.487Z,1.60
2019-04-03T07:33:23.326Z,1.65
2019-04-03T07:35:51.872Z,2.30
2019-04-03T07:38:22.139Z,1.25
2019-04-03T07:40:52.010Z,2.08
2019-04-03T07:43:21.095Z,2.50
2019-04-03T07:45:49.587Z,3.25
2019-04-03T07:48:18.248Z,2.52
2019-04-03T07:50:47.032Z,1.75
2019-04-03T07:53:15.670Z,2.92
2019-04-03T07:55:44.424Z,2.47
2019-04-03T07:58:13.330Z,2.22
2019-04-03T08:00:42.127Z,3.02
2019-04-03T08:03:10.696Z,2.33
2019-04-03T08:05:39.360Z,2.90
2019-04-03T08:08:07.928Z,2.58
2019-04-03T08:10:37.822Z,3.00
2019-04-03T08:13:07.547Z,2.62
2019-04-03T08:15:36.402Z,2.33
2019-04-03T08:18:05.182Z,2.60
2019-04-03T08:20:33.999Z,2.72
2019-04-03T08:23:04.684Z,2.35
2019-04-03T08:25:33.247Z,2.35
2019-04-03T08:28:02.065Z,2.55
2019-04-03T08:30:30.703Z,3.05
2019-04-03T08:32:59.329Z,2.10
2019-04-03T08:35:28.005Z,3.00
2019-04-03T08:37:56.573Z,2.35
2019-04-03T08:40:25.219Z,2.12
2019-04-03T08:42:53.911Z,2.30
2019-04-03T08:45:22.790Z,1.65
2019-04-03T08:47:51.377Z,2.50
2019-04-03T08:50:20.053Z,3.00
2019-04-03T08:52:48.909Z,2.42
2019-04-03T08:55:17.584Z,2.90
2019-04-03T08:57:46.926Z,2.62
2019-04-03T09:00:16.279Z,2.22
2019-04-03T09:02:44.897Z,2.40
2019-04-03T09:05:14.704Z,2.47
2019-04-03T09:07:44.106Z,2.30
2019-04-03T09:10:13.525Z,1.95
2019-04-03T09:12:42.127Z,2.02
2019-04-03T09:15:11.325Z,2.00
2019-04-03T09:17:40.178Z,2.60
2019-04-03T09:20:12.548Z,1.42
2019-04-03T09:22:40.019Z,2.25
2019-04-03T09:25:09.722Z,1.82
2019-04-03T09:27:40.334Z,2.30
2019-04-03T09:30:11.317Z,2.58
2019-04-03T09:32:40.029Z,2.37
2019-04-03T09:35:09.305Z,2.77
2019-04-03T09:37:38.416Z,2.85
2019-04-03T09:40:08.262Z,2.87
2019-04-03T09:42:36.973Z,1.67
2019-04-03T09:45:08.298Z,2.08
2019-04-03T09:47:37.413Z,2.22
2019-04-03T09:50:08.198Z,1.95
2019-04-03T09:52:42.331Z,2.17
2019-04-03T09:55:07.643Z,2.12
2019-04-03T09:57:36.603Z,2.55
2019-04-03T10:00:10.580Z,2.70
2019-04-03T10:02:40.180Z,2.52
2019-04-03T10:05:09.031Z,2.80
2019-04-03T10:07:37.664Z,2.33
2019-04-03T10:10:08.029Z,1.98
2019-04-03T10:12:36.874Z,2.05
2019-04-03T10:15:07.858Z,1.90
2019-04-03T10:17:38.325Z,2.17
2019-04-03T10:20:10.101Z,2.65
2019-04-03T10:22:38.727Z,3.00
2019-04-03T10:25:10.787Z,3.00
2019-04-03T10:27:42.623Z,2.87
2019-04-03T10:30:12.745Z,1.80
2019-04-03T10:32:41.479Z,2.52
2019-04-03T10:35:10.428Z,2.58
2019-04-03T10:37:39.075Z,2.52
2019-04-03T10:40:10.288Z,2.33
2019-04-03T10:42:39.123Z,2.92
2019-04-03T10:45:09.216Z,1.40
2019-04-03T10:47:42.982Z,2.40
2019-04-03T10:50:09.298Z,2.20
2019-04-03T10:52:38.222Z,2.50
2019-04-03T10:55:08.396Z,2.77
2019-04-03T10:57:37.239Z,2.75
2019-04-03T11:00:08.779Z,2.12
2019-04-03T11:02:37.616Z,1.90
2019-04-03T11:05:08.726Z,2.17
2019-04-03T11:07:37.896Z,2.12
2019-04-03T11:10:09.902Z,1.65
2019-04-03T11:12:38.590Z,2.30
2019-04-03T11:15:11.556Z,1.77
2019-04-03T11:17:39.675Z,1.62
2019-04-03T11:20:10.784Z,2.42
2019-04-03T11:22:42.137Z,1.87
2019-04-03T11:25:14.021Z,2.52
2019-04-03T11:27:43.650Z,1.57
2019-04-03T11:30:17.367Z,1.80
2019-04-03T11:32:45.185Z,1.92
2019-04-03T11:35:15.597Z,2.83
2019-04-03T11:37:44.232Z,2.50
2019-04-03T11:40:17.310Z,2.52
2019-04-03T11:42:44.572Z,1.85
2019-04-03T11:45:14.971Z,2.15
2019-04-03T11:47:46.180Z,1.95
2019-04-03T11:50:14.903Z,1.90
2019-04-03T11:52:43.575Z,2.27
2019-04-03T11:55:12.549Z,2.65
2019-04-03T11:57:41.215Z,2.22
2019-04-03T12:00:14.371Z,1.75
2019-04-03T12:02:44.356Z,2.70
2019-04-03T12:05:17.373Z,2.70
2019-04-03T12:07:45.742Z,2.25
2019-04-03T12:10:14.871Z,2.65
2019-04-03T12:12:43.791Z,2.02
2019-04-03T12:15:16.087Z,2.33
2019-04-03T12:17:43.403Z,2.33
2019-04-03T12:20:15.313Z,2.30
2019-04-03T12:22:43.226Z,2.55
2019-04-03T12:25:12.235Z,2.25
2019-04-03T12:27:40.865Z,1.90
2019-04-03T12:30:10.405Z,2.62
2019-04-03T12:32:43.569Z,2.87
2019-04-03T12:35:11.007Z,3.12
2019-04-03T12:37:39.962Z,2.83
2019-04-03T12:40:10.396Z,2.85
2019-04-03T12:42:38.955Z,2.60
2019-04-03T12:45:08.546Z,2.75
2019-04-03T12:47:37.238Z,2.67
2019-04-03T12:50:07.692Z,3.15
2019-04-03T12:52:36.599Z,3.60
2019-04-03T12:55:08.639Z,3.10
2019-04-03T12:57:39.270Z,3.08
2019-04-03T13:00:11.449Z,2.72
2019-04-03T13:02:40.485Z,2.95
2019-04-03T13:05:09.888Z,3.27
2019-04-03T13:07:38.526Z,2.72
2019-04-03T13:10:10.088Z,2.62
2019-04-03T13:12:39.202Z,2.37
2019-04-03T13:15:12.547Z,2.05
2019-04-03T13:17:43.469Z,2.12
2019-04-03T13:20:12.016Z,2.00
2019-04-03T13:22:42.517Z,2.98
2019-04-03T13:25:11.857Z,3.08
2019-04-03T13:27:40.751Z,3.85
2019-04-03T13:30:12.823Z,3.02
2019-04-03T13:32:41.860Z,3.77
2019-04-03T13:35:10.731Z,2.87
2019-04-03T13:37:39.710Z,4.08
2019-04-03T13:40:09.285Z,3.30
2019-04-03T13:42:38.002Z,3.37
2019-04-03T13:45:09.339Z,3.00
2019-04-03T13:47:41.031Z,5.00
2019-04-03T13:50:09.935Z,4.37
2019-04-03T13:52:42.909Z,3.15
2019-04-03T13:55:09.756Z,3.45
2019-04-03T13:57:38.716Z,3.00
2019-04-03T14:00:18.156Z,2.87
2019-04-03T14:02:38.756Z,2.92
2019-04-03T14:05:08.828Z,3.98
2019-04-03T14:07:40.367Z,4.12
2019-04-03T14:10:09.892Z,4.78
2019-04-03T14:12:42.986Z,4.67
2019-04-03T14:15:09.094Z,4.25
2019-04-03T14:17:38.879Z,3.70
2019-04-03T14:20:09.110Z,4.22
2019-04-03T14:22:37.736Z,3.65
2019-04-03T14:25:17.964Z,4.33
2019-04-03T14:27:38.504Z,5.22
2019-04-03T14:30:11.147Z,3.58
2019-04-03T14:32:39.341Z,3.87
2019-04-03T14:35:34.166Z,5.30
2019-04-03T14:37:39.142Z,4.72
2019-04-03T14:40:11.121Z,4.92
2019-04-03T14:42:38.871Z,4.60
2019-04-03T14:45:08.280Z,5.20
2019-04-03T14:47:36.936Z,5.15
2019-04-03T14:50:07.344Z,5.35
2019-04-03T14:52:36.342Z,4.45
2019-04-03T14:55:17.211Z,2.47
2019-04-03T14:57:37.238Z,3.90
2019-04-03T15:00:22.993Z,4.62
2019-04-03T15:02:40.305Z,4.70
2019-04-03T15:05:09.338Z,4.08
2019-04-03T15:07:37.939Z,4.58
2019-04-03T15:10:07.435Z,4.67
2019-04-03T15:12:38.608Z,4.45
2019-04-03T15:15:06.983Z,5.78
2019-04-03T15:17:37.195Z,4.45
2019-04-03T15:20:08.384Z,4.12
2019-04-03T15:22:37.320Z,4.37
2019-04-03T15:25:06.444Z,2.47
2019-04-03T15:27:35.022Z,3.52
2019-04-03T15:30:08.817Z,4.53
2019-04-03T15:32:35.733Z,2.98
2019-04-03T15:35:05.573Z,4.75
2019-04-03T15:37:34.810Z,4.30
2019-04-03T15:40:03.849Z,3.35
2019-04-03T15:42:32.499Z,3.75
2019-04-03T15:45:01.169Z,4.97
2019-04-03T15:47:36.554Z,3.42
2019-04-03T15:50:00.454Z,3.67
2019-04-03T15:52:29.399Z,2.37
2019-04-03T15:54:58.474Z,4.50
2019-04-03T15:57:26.972Z,4.00
2019-04-03T15:59:55.514Z,4.83
2019-04-03T16:02:24.075Z,3.80
2019-04-03T16:04:52.751Z,4.87
2019-04-03T16:07:21.660Z,5.00
2019-04-03T16:09:51.382Z,5.33
2019-04-03T16:12:20.483Z,4.17
2019-04-03T16:14:51.185Z,4.58
2019-04-03T16:17:20.029Z,3.55
2019-04-03T16:19:48.701Z,4.25
2019-04-03T16:22:17.283Z,4.50
2019-04-03T16:24:45.915Z,5.20
2019-04-03T16:27:14.994Z,4.72
2019-04-03T16:29:43.787Z,4.65
2019-04-03T16:32:12.764Z,4.70
2019-04-03T16:34:42.657Z,4.58
2019-04-03T16:37:11.663Z,4.37
2019-04-03T16:39:40.340Z,4.08
2019-04-03T16:42:08.953Z,4.80
2019-04-03T16:44:37.985Z,5.67
2019-04-03T16:47:06.774Z,5.70
2019-04-03T16:49:35.806Z,5.17
2019-04-03T16:52:05.780Z,4.67
2019-04-03T16:54:34.710Z,3.95
2019-04-03T16:57:03.709Z,5.03
2019-04-03T16:59:35.467Z,4.80
2019-04-03T17:02:03.024Z,5.20
2019-04-03T17:04:33.041Z,4.10
2019-04-03T17:07:02.047Z,5.50
2019-04-03T17:09:32.815Z,4.58
2019-04-03T17:12:01.073Z,4.95
2019-04-03T17:14:29.990Z,4.42
2019-04-03T17:16:58.619Z,4.60
2019-04-03T17:19:27.198Z,4.90
2019-04-03T17:21:56.035Z,3.12
2019-04-03T17:24:24.710Z,4.12
2019-04-03T17:26:57.405Z,4.05
2019-04-03T17:29:23.653Z,3.65
2019-04-03T17:31:52.145Z,3.47
2019-04-03T17:34:21.176Z,4.00
2019-04-03T17:36:52.341Z,3.25
2019-04-03T17:39:20.219Z,3.98
2019-04-03T17:41:48.791Z,3.75
2019-04-03T17:44:17.461Z,3.60
2019-04-03T17:46:48.743Z,3.65
2019-04-03T17:49:16.376Z,3.87
2019-04-03T17:51:45.128Z,4.67
2019-04-03T17:54:13.964Z,3.20
2019-04-03T17:56:43.088Z,4.33
2019-04-03T17:59:12.251Z,3.30
2019-04-03T18:01:40.816Z,3.70
2019-04-03T18:04:09.497Z,2.65
2019-04-03T18:06:38.154Z,2.37
2019-04-03T18:09:08.991Z,2.15
2019-04-03T18:11:37.640Z,2.80
2019-04-03T18:14:06.335Z,2.90
2019-04-03T18:16:34.952Z,3.15
2019-04-03T18:19:04.924Z,3.22
2019-04-03T18:21:34.068Z,3.72
2019-04-03T18:24:02.709Z,3.15
2019-04-03T18:26:31.339Z,3.20
2019-04-03T18:28:59.952Z,3.15
2019-04-03T18:31:28.578Z,3.22
2019-04-03T18:33:57.068Z,2.90
2019-04-03T18:36:28.386Z,1.70
2019-04-03T18:38:56.012Z,2.37
2019-04-03T18:41:24.646Z,2.72
2019-04-03T18:43:54.441Z,2.55
2019-04-03T18:46:32.002Z,2.72
2019-04-03T18:48:58.892Z,2.17
2019-04-03T18:51:24.276Z,3.30
2019-04-03T18:53:52.790Z,3.08
2019-04-03T18:56:21.410Z,3.25
2019-04-03T18:58:50.032Z,2.65
2019-04-03T19:01:18.906Z,2.70
2019-04-03T19:03:47.606Z,3.55
2019-04-03T19:06:16.166Z,3.27
2019-04-03T19:08:44.794Z,3.70
2019-04-03T19:11:13.382Z,3.62
2019-04-03T19:13:44.474Z,3.02
2019-04-03T19:16:15.433Z,2.90
2019-04-03T19:18:42.952Z,3.10
2019-04-03T19:21:23.701Z,2.58
2019-04-03T19:23:49.677Z,2.67
2019-04-03T19:26:12.259Z,2.87
2019-04-03T19:28:40.756Z,2.42
2019-04-03T19:31:09.364Z,2.02
2019-04-03T19:33:38.333Z,2.87
2019-04-03T19:36:06.986Z,2.15
2019-04-03T19:38:35.886Z,1.62
2019-04-03T19:41:05.141Z,1.62
2019-04-03T19:43:33.778Z,1.98
2019-04-03T19:46:02.435Z,2.12
2019-04-03T19:48:31.017Z,2.25
2019-04-03T19:51:02.691Z,2.58
2019-04-03T19:53:29.921Z,2.45
2019-04-03T19:55:58.515Z,2.40
2019-04-03T19:58:29.131Z,2.10
2019-04-03T20:00:57.505Z,2.45
2019-04-03T20:03:26.304Z,2.52
2019-04-03T20:05:55.310Z,1.20
2019-04-03T20:08:24.047Z,1.80
2019-04-03T20:10:52.717Z,2.47
2019-04-03T20:13:21.274Z,2.10
2019-04-03T20:15:49.775Z,2.72
2019-04-03T20:18:18.435Z,2.72
2019-04-03T20:20:47.176Z,1.98
2019-04-03T20:23:15.728Z,1.77
2019-04-03T20:25:45.911Z,1.60
2019-04-03T20:28:14.878Z,2.92
2019-04-03T20:30:43.581Z,2.25
2019-04-03T20:33:12.295Z,1.65
2019-04-03T20:35:40.886Z,1.57
2019-04-03T20:38:09.373Z,2.17
2019-04-03T20:40:39.837Z,2.27
2019-04-03T20:43:11.199Z,2.35
2019-04-03T20:45:38.871Z,1.80
2019-04-03T20:48:07.404Z,2.20
2019-04-03T20:50:38.133Z,2.25
2019-04-03T20:53:06.388Z,1.98
2019-04-03T20:55:35.253Z,1.80
2019-04-03T20:58:06.783Z,2.12
2019-04-03T21:00:35.487Z,1.45
2019-04-03T21:03:04.154Z,1.47
2019-04-03T21:05:32.787Z,1.37
2019-04-03T21:08:01.280Z,1.50
2019-04-03T21:10:31.430Z,2.17
2019-04-03T21:13:00.250Z,1.98
2019-04-03T21:15:28.807Z,0.70
2019-04-03T21:17:57.474Z,1.90
2019-04-03T21:20:26.109Z,1.02
2019-04-03T21:22:54.732Z,1.15
2019-04-03T21:25:23.375Z,1.10
2019-04-03T21:27:51.998Z,1.25
2019-04-03T21:30:23.696Z,0.72
2019-04-03T21:32:50.886Z,1.12
2019-04-03T21:35:19.435Z,1.12
2019-04-03T21:37:48.063Z,0.95
2019-04-03T21:40:16.909Z,0.70
2019-04-03T21:42:45.404Z,1.22
2019-04-03T21:45:14.132Z,1.02
2019-04-03T21:47:43.292Z,0.60
2019-04-03T21:50:12.287Z,0.95
2019-04-03T21:52:40.913Z,0.50
2019-04-03T21:55:09.977Z,0.53
2019-04-03T21:57:38.718Z,0.70
2019-04-03T22:00:13.220Z,0.60
2019-04-03T22:02:40.712Z,0.80
2019-04-03T22:05:09.644Z,0.70
2019-04-03T22:07:38.315Z,0.78
2019-04-03T22:10:09.026Z,0.75
2019-04-03T22:12:37.659Z,0.55
2019-04-03T22:15:07.744Z,0.33
2019-04-03T22:17:36.364Z,0.70
2019-04-03T22:20:05.889Z,0.50
2019-04-03T22:22:34.564Z,0.30
2019-04-03T22:25:03.406Z,0.70
2019-04-03T22:27:31.896Z,1.07
2019-04-03T22:30:00.517Z,0.30
2019-04-03T22:32:29.233Z,0.62
2019-04-03T22:35:00.565Z,0.42
2019-04-03T22:37:28.156Z,0.40
2019-04-03T22:39:56.820Z,0.50
2019-04-03T22:42:25.391Z,0.37
2019-04-03T22:44:53.868Z,0.37
2019-04-03T22:47:23.061Z,0.60
2019-04-03T22:49:53.148Z,0.40
2019-04-03T22:52:21.631Z,0.55
2019-04-03T22:54:50.163Z,0.50
2019-04-03T22:57:19.779Z,0.50
2019-04-03T22:59:48.797Z,0.70
2019-04-03T23:02:17.326Z,0.50
2019-04-03T23:04:46.390Z,0.50
2019-04-03T23:07:15.175Z,0.60
2019-04-03T23:09:43.843Z,0.40
2019-04-03T23:12:12.467Z,0.40
2019-04-03T23:14:41.092Z,0.50
2019-04-03T23:17:09.755Z,0.40
2019-04-03T23:19:38.377Z,0.40
2019-04-03T23:22:07.026Z,0.50
2019-04-03T23:24:35.717Z,0.45
2019-04-03T23:27:04.345Z,0.50
2019-04-03T23:29:35.886Z,0.50
2019-04-03T23:32:03.429Z,0.35
2019-04-03T23:34:32.063Z,0.37
2019-04-03T23:37:00.690Z,0.28
2019-04-03T23:39:29.359Z,0.40
2019-04-03T23:41:57.985Z,0.62
2019-04-03T23:44:26.619Z,0.40
2019-04-03T23:46:55.358Z,0.50
2019-04-03T23:49:23.983Z,0.40
2019-04-03T23:51:52.616Z,0.40
2019-04-03T23:54:21.242Z,0.40
2019-04-03T23:56:49.871Z,0.30
2019-04-03T23:59:18.674Z,0.40
